sensor_id;sensor_type;location;lat;lon;timestamp;temperature;humidity
4520;DHT22;2272;49.226;8.108;2022-09-29T00:00:12;5.50;99.90
4520;DHT22;2272;49.226;8.108;2022-09-29T00:02:39;5.50;99.90
4520;DHT22;2272;49.226;8.108;2022-09-29T00:05:08;5.40;99.90
4520;DHT22;2272;49.226;8.108;2022-09-29T00:07:34;5.40;99.90
4520;DHT22;2272;49.226;8.108;2022-09-29T00:10:01;5.30;99.90
4520;DHT22;2272;49.226;8.108;2022-09-29T00:12:29;5.30;99.90
4520;DHT22;2272;49.226;8.108;2022-09-29T00:14:55;5.30;99.90
4520;DHT22;2272;49.226;8.108;2022-09-29T00:17:22;5.20;99.90
4520;DHT22;2272;49.226;8.108;2022-09-29T00:19:49;5.20;99.90
4520;DHT22;2272;49.226;8.108;2022-09-29T00:22:17;5.10;99.90
4520;DHT22;2272;49.226;8.108;2022-09-29T00:24:45;5.10;99.90
4520;DHT22;2272;49.226;8.108;2022-09-29T00:27:13;5.10;99.90
4520;DHT22;2272;49.226;8.108;2022-09-29T00:29:40;5.00;99.90
4520;DHT22;2272;49.226;8.108;2022-09-29T00:32:07;5.10;99.90
4520;DHT22;2272;49.226;8.108;2022-09-29T00:34:33;5.10;99.90
4520;DHT22;2272;49.226;8.108;2022-09-29T00:37:00;5.10;99.90
4520;DHT22;2272;49.226;8.108;2022-09-29T00:39:28;5.10;99.90
4520;DHT22;2272;49.226;8.108;2022-09-29T00:41:55;5.10;99.90
4520;DHT22;2272;49.226;8.108;2022-09-29T00:44:58;5.10;99.90
4520;DHT22;2272;49.226;8.108;2022-09-29T00:47:28;5.20;99.90
4520;DHT22;2272;49.226;8.108;2022-09-29T00:49:59;5.20;99.90
4520;DHT22;2272;49.226;8.108;2022-09-29T00:52:29;5.30;99.90
4520;DHT22;2272;49.226;8.108;2022-09-29T00:55:01;5.30;99.90
4520;DHT22;2272;49.226;8.108;2022-09-29T00:57:32;5.40;99.90
4520;DHT22;2272;49.226;8.108;2022-09-29T01:00:03;5.40;99.90
4520;DHT22;2272;49.226;8.108;2022-09-29T01:02:33;5.40;99.90
4520;DHT22;2272;49.226;8.108;2022-09-29T01:05:04;5.40;99.90
4520;DHT22;2272;49.226;8.108;2022-09-29T01:07:32;5.40;99.90
4520;DHT22;2272;49.226;8.108;2022-09-29T01:10:01;5.40;99.90
4520;DHT22;2272;49.226;8.108;2022-09-29T01:14:56;5.40;99.90
4520;DHT22;2272;49.226;8.108;2022-09-29T01:17:22;5.40;99.90
4520;DHT22;2272;49.226;8.108;2022-09-29T01:19:54;5.40;99.90
4520;DHT22;2272;49.226;8.108;2022-09-29T01:22:49;5.50;99.90
4520;DHT22;2272;49.226;8.108;2022-09-29T01:25:41;5.50;99.90
4520;DHT22;2272;49.226;8.108;2022-09-29T01:28:21;5.60;99.90
4520;DHT22;2272;49.226;8.108;2022-09-29T01:31:06;5.60;99.90
4520;DHT22;2272;49.226;8.108;2022-09-29T01:33:40;5.50;99.90
4520;DHT22;2272;49.226;8.108;2022-09-29T01:36:13;5.50;99.90
4520;DHT22;2272;49.226;8.108;2022-09-29T01:38:54;5.50;99.90
4520;DHT22;2272;49.226;8.108;2022-09-29T01:41:29;5.40;99.90
4520;DHT22;2272;49.226;8.108;2022-09-29T01:44:03;5.40;99.90
4520;DHT22;2272;49.226;8.108;2022-09-29T01:46:36;5.40;99.90
4520;DHT22;2272;49.226;8.108;2022-09-29T01:49:03;5.30;99.90
4520;DHT22;2272;49.226;8.108;2022-09-29T01:51:35;5.20;99.90
4520;DHT22;2272;49.226;8.108;2022-09-29T01:54:08;5.10;99.90
4520;DHT22;2272;49.226;8.108;2022-09-29T01:56:38;5.00;99.90
4520;DHT22;2272;49.226;8.108;2022-09-29T01:59:11;5.00;99.90
4520;DHT22;2272;49.226;8.108;2022-09-29T02:01:44;4.90;99.90
4520;DHT22;2272;49.226;8.108;2022-09-29T02:04:15;4.80;99.90
4520;DHT22;2272;49.226;8.108;2022-09-29T02:06:48;4.70;99.90
4520;DHT22;2272;49.226;8.108;2022-09-29T02:09:23;4.70;99.90
4520;DHT22;2272;49.226;8.108;2022-09-29T02:11:51;4.60;99.90
4520;DHT22;2272;49.226;8.108;2022-09-29T02:14:21;4.60;99.90
4520;DHT22;2272;49.226;8.108;2022-09-29T02:16:55;4.50;99.90
4520;DHT22;2272;49.226;8.108;2022-09-29T02:19:25;4.50;99.90
4520;DHT22;2272;49.226;8.108;2022-09-29T02:21:54;4.50;99.90
4520;DHT22;2272;49.226;8.108;2022-09-29T02:24:22;4.50;99.90
4520;DHT22;2272;49.226;8.108;2022-09-29T02:26:49;4.50;99.90
4520;DHT22;2272;49.226;8.108;2022-09-29T02:29:17;4.50;99.90
4520;DHT22;2272;49.226;8.108;2022-09-29T02:31:45;4.50;99.90
4520;DHT22;2272;49.226;8.108;2022-09-29T02:34:16;4.50;99.90
4520;DHT22;2272;49.226;8.108;2022-09-29T02:36:53;4.60;99.90
4520;DHT22;2272;49.226;8.108;2022-09-29T02:39:30;4.60;99.90
4520;DHT22;2272;49.226;8.108;2022-09-29T02:42:07;4.60;99.90
4520;DHT22;2272;49.226;8.108;2022-09-29T02:44:50;4.60;99.90
4520;DHT22;2272;49.226;8.108;2022-09-29T02:47:42;4.60;99.90
4520;DHT22;2272;49.226;8.108;2022-09-29T02:50:30;4.60;99.90
4520;DHT22;2272;49.226;8.108;2022-09-29T02:53:03;4.60;99.90
4520;DHT22;2272;49.226;8.108;2022-09-29T02:55:37;4.50;99.90
4520;DHT22;2272;49.226;8.108;2022-09-29T02:58:12;4.50;99.90
4520;DHT22;2272;49.226;8.108;2022-09-29T03:00:40;4.50;99.90
4520;DHT22;2272;49.226;8.108;2022-09-29T03:03:08;4.50;99.90
4520;DHT22;2272;49.226;8.108;2022-09-29T03:05:37;4.50;99.90
4520;DHT22;2272;49.226;8.108;2022-09-29T03:08:03;4.50;99.90
4520;DHT22;2272;49.226;8.108;2022-09-29T03:10:30;4.50;99.90
4520;DHT22;2272;49.226;8.108;2022-09-29T03:12:57;4.60;99.90
4520;DHT22;2272;49.226;8.108;2022-09-29T03:15:24;4.70;99.90
4520;DHT22;2272;49.226;8.108;2022-09-29T03:17:54;4.70;99.90
4520;DHT22;2272;49.226;8.108;2022-09-29T03:20:21;4.80;99.90
4520;DHT22;2272;49.226;8.108;2022-09-29T03:22:49;4.90;99.90
4520;DHT22;2272;49.226;8.108;2022-09-29T03:25:16;4.90;99.90
4520;DHT22;2272;49.226;8.108;2022-09-29T03:27:43;4.90;99.90
4520;DHT22;2272;49.226;8.108;2022-09-29T03:30:11;4.90;99.90
4520;DHT22;2272;49.226;8.108;2022-09-29T03:32:38;5.00;99.90
4520;DHT22;2272;49.226;8.108;2022-09-29T03:35:06;5.00;99.90
4520;DHT22;2272;49.226;8.108;2022-09-29T03:37:33;5.00;99.90
4520;DHT22;2272;49.226;8.108;2022-09-29T03:40:01;5.10;99.90
4520;DHT22;2272;49.226;8.108;2022-09-29T03:42:28;5.20;99.90
4520;DHT22;2272;49.226;8.108;2022-09-29T03:44:55;5.30;99.90
4520;DHT22;2272;49.226;8.108;2022-09-29T03:47:22;5.30;99.90
4520;DHT22;2272;49.226;8.108;2022-09-29T03:49:48;5.40;99.90
4520;DHT22;2272;49.226;8.108;2022-09-29T03:52:15;5.40;99.90
4520;DHT22;2272;49.226;8.108;2022-09-29T03:54:42;5.40;99.90
4520;DHT22;2272;49.226;8.108;2022-09-29T03:57:10;5.50;99.90
4520;DHT22;2272;49.226;8.108;2022-09-29T03:59:36;5.60;99.90
4520;DHT22;2272;49.226;8.108;2022-09-29T04:02:03;5.70;99.90
4520;DHT22;2272;49.226;8.108;2022-09-29T04:04:30;5.80;99.90
4520;DHT22;2272;49.226;8.108;2022-09-29T04:06:56;5.80;99.90
4520;DHT22;2272;49.226;8.108;2022-09-29T04:09:23;5.90;99.90
4520;DHT22;2272;49.226;8.108;2022-09-29T04:11:50;5.90;99.90
4520;DHT22;2272;49.226;8.108;2022-09-29T04:14:18;5.90;99.90
4520;DHT22;2272;49.226;8.108;2022-09-29T04:16:45;5.90;99.90
4520;DHT22;2272;49.226;8.108;2022-09-29T04:19:11;5.90;99.90
4520;DHT22;2272;49.226;8.108;2022-09-29T04:21:38;5.90;99.90
4520;DHT22;2272;49.226;8.108;2022-09-29T04:24:05;5.90;99.90
4520;DHT22;2272;49.226;8.108;2022-09-29T04:26:31;5.80;99.90
4520;DHT22;2272;49.226;8.108;2022-09-29T04:28:58;5.70;99.90
4520;DHT22;2272;49.226;8.108;2022-09-29T04:31:26;5.70;99.90
4520;DHT22;2272;49.226;8.108;2022-09-29T04:33:53;5.70;99.90
4520;DHT22;2272;49.226;8.108;2022-09-29T04:36:20;5.60;99.90
4520;DHT22;2272;49.226;8.108;2022-09-29T04:38:46;5.60;99.90
4520;DHT22;2272;49.226;8.108;2022-09-29T04:41:14;5.50;99.90
4520;DHT22;2272;49.226;8.108;2022-09-29T04:43:42;5.40;99.90
4520;DHT22;2272;49.226;8.108;2022-09-29T04:46:09;5.30;99.90
4520;DHT22;2272;49.226;8.108;2022-09-29T04:48:37;5.30;99.90
4520;DHT22;2272;49.226;8.108;2022-09-29T04:51:05;5.20;99.90
4520;DHT22;2272;49.226;8.108;2022-09-29T04:53:32;5.10;99.90
4520;DHT22;2272;49.226;8.108;2022-09-29T04:56:04;5.10;99.90
4520;DHT22;2272;49.226;8.108;2022-09-29T04:58:30;5.00;99.90
4520;DHT22;2272;49.226;8.108;2022-09-29T05:01:04;5.00;99.90
4520;DHT22;2272;49.226;8.108;2022-09-29T05:03:30;5.00;99.90
4520;DHT22;2272;49.226;8.108;2022-09-29T05:05:58;5.00;99.90
4520;DHT22;2272;49.226;8.108;2022-09-29T05:08:25;4.90;99.90
4520;DHT22;2272;49.226;8.108;2022-09-29T05:10:52;4.90;99.90
4520;DHT22;2272;49.226;8.108;2022-09-29T05:13:19;4.80;99.90
4520;DHT22;2272;49.226;8.108;2022-09-29T05:15:45;4.70;99.90
4520;DHT22;2272;49.226;8.108;2022-09-29T05:18:12;4.70;99.90
4520;DHT22;2272;49.226;8.108;2022-09-29T05:20:39;4.80;99.90
4520;DHT22;2272;49.226;8.108;2022-09-29T05:23:07;4.90;99.90
4520;DHT22;2272;49.226;8.108;2022-09-29T05:25:35;4.90;99.90
4520;DHT22;2272;49.226;8.108;2022-09-29T05:28:02;5.00;99.90
4520;DHT22;2272;49.226;8.108;2022-09-29T05:30:28;5.10;99.90
4520;DHT22;2272;49.226;8.108;2022-09-29T05:32:55;5.10;99.90
4520;DHT22;2272;49.226;8.108;2022-09-29T05:35:22;5.20;99.90
4520;DHT22;2272;49.226;8.108;2022-09-29T05:37:48;5.20;99.90
4520;DHT22;2272;49.226;8.108;2022-09-29T05:40:17;5.30;99.90
4520;DHT22;2272;49.226;8.108;2022-09-29T05:42:45;5.30;99.90
4520;DHT22;2272;49.226;8.108;2022-09-29T05:45:12;5.40;99.90
4520;DHT22;2272;49.226;8.108;2022-09-29T05:47:40;5.50;99.90
4520;DHT22;2272;49.226;8.108;2022-09-29T05:50:08;5.50;99.90
4520;DHT22;2272;49.226;8.108;2022-09-29T05:52:36;5.60;99.90
4520;DHT22;2272;49.226;8.108;2022-09-29T05:55:03;5.60;99.90
4520;DHT22;2272;49.226;8.108;2022-09-29T05:57:31;5.70;99.90
4520;DHT22;2272;49.226;8.108;2022-09-29T05:59:58;5.80;99.90
4520;DHT22;2272;49.226;8.108;2022-09-29T06:02:24;5.80;99.90
4520;DHT22;2272;49.226;8.108;2022-09-29T06:04:51;5.90;99.90
4520;DHT22;2272;49.226;8.108;2022-09-29T06:07:18;6.00;99.90
4520;DHT22;2272;49.226;8.108;2022-09-29T06:09:45;6.10;99.90
4520;DHT22;2272;49.226;8.108;2022-09-29T06:12:12;6.20;99.90
4520;DHT22;2272;49.226;8.108;2022-09-29T06:14:40;6.30;99.90
4520;DHT22;2272;49.226;8.108;2022-09-29T06:17:07;6.30;99.90
4520;DHT22;2272;49.226;8.108;2022-09-29T06:19:33;6.30;99.90
4520;DHT22;2272;49.226;8.108;2022-09-29T06:22:00;6.40;99.90
4520;DHT22;2272;49.226;8.108;2022-09-29T06:24:27;6.40;99.90
4520;DHT22;2272;49.226;8.108;2022-09-29T06:26:53;6.50;99.90
4520;DHT22;2272;49.226;8.108;2022-09-29T06:29:20;6.50;99.90
4520;DHT22;2272;49.226;8.108;2022-09-29T06:31:48;6.60;99.90
4520;DHT22;2272;49.226;8.108;2022-09-29T06:34:15;6.60;99.90
4520;DHT22;2272;49.226;8.108;2022-09-29T06:36:43;6.70;99.90
4520;DHT22;2272;49.226;8.108;2022-09-29T06:39:28;6.80;99.90
4520;DHT22;2272;49.226;8.108;2022-09-29T06:41:57;6.90;99.90
4520;DHT22;2272;49.226;8.108;2022-09-29T06:44:25;6.90;99.90
4520;DHT22;2272;49.226;8.108;2022-09-29T06:46:54;7.00;99.90
4520;DHT22;2272;49.226;8.108;2022-09-29T06:49:21;7.20;99.90
4520;DHT22;2272;49.226;8.108;2022-09-29T06:51:48;7.30;99.90
4520;DHT22;2272;49.226;8.108;2022-09-29T06:54:17;7.40;99.90
4520;DHT22;2272;49.226;8.108;2022-09-29T06:56:46;7.50;99.90
4520;DHT22;2272;49.226;8.108;2022-09-29T06:59:12;7.50;99.90
4520;DHT22;2272;49.226;8.108;2022-09-29T07:01:39;7.60;99.90
4520;DHT22;2272;49.226;8.108;2022-09-29T07:04:07;7.70;99.90
4520;DHT22;2272;49.226;8.108;2022-09-29T07:06:34;7.80;99.90
4520;DHT22;2272;49.226;8.108;2022-09-29T07:09:01;7.90;99.90
4520;DHT22;2272;49.226;8.108;2022-09-29T07:11:27;8.00;99.90
4520;DHT22;2272;49.226;8.108;2022-09-29T07:13:54;8.10;99.90
4520;DHT22;2272;49.226;8.108;2022-09-29T07:16:21;8.30;99.90
4520;DHT22;2272;49.226;8.108;2022-09-29T07:18:49;8.40;99.90
4520;DHT22;2272;49.226;8.108;2022-09-29T07:21:17;8.50;99.90
4520;DHT22;2272;49.226;8.108;2022-09-29T07:23:46;8.60;99.90
4520;DHT22;2272;49.226;8.108;2022-09-29T07:26:13;8.70;99.90
4520;DHT22;2272;49.226;8.108;2022-09-29T07:28:41;8.80;99.90
4520;DHT22;2272;49.226;8.108;2022-09-29T07:31:10;8.70;99.90
4520;DHT22;2272;49.226;8.108;2022-09-29T07:33:37;8.70;99.90
4520;DHT22;2272;49.226;8.108;2022-09-29T07:36:04;8.70;99.90
4520;DHT22;2272;49.226;8.108;2022-09-29T07:38:32;8.70;99.90
4520;DHT22;2272;49.226;8.108;2022-09-29T07:41:00;8.80;99.90
4520;DHT22;2272;49.226;8.108;2022-09-29T07:43:27;8.80;99.90
4520;DHT22;2272;49.226;8.108;2022-09-29T07:45:53;8.90;99.90
4520;DHT22;2272;49.226;8.108;2022-09-29T07:48:20;8.90;99.90
4520;DHT22;2272;49.226;8.108;2022-09-29T07:50:48;9.00;99.90
4520;DHT22;2272;49.226;8.108;2022-09-29T07:53:14;9.00;99.90
4520;DHT22;2272;49.226;8.108;2022-09-29T07:55:42;9.10;99.90
4520;DHT22;2272;49.226;8.108;2022-09-29T07:58:09;9.20;99.90
4520;DHT22;2272;49.226;8.108;2022-09-29T08:00:36;9.20;99.90
4520;DHT22;2272;49.226;8.108;2022-09-29T08:03:04;9.30;99.90
4520;DHT22;2272;49.226;8.108;2022-09-29T08:05:31;9.40;99.90
4520;DHT22;2272;49.226;8.108;2022-09-29T08:07:59;9.50;99.90
4520;DHT22;2272;49.226;8.108;2022-09-29T08:10:26;9.50;99.90
4520;DHT22;2272;49.226;8.108;2022-09-29T08:12:54;9.60;99.90
4520;DHT22;2272;49.226;8.108;2022-09-29T08:15:21;9.80;99.90
4520;DHT22;2272;49.226;8.108;2022-09-29T08:17:51;9.90;99.90
4520;DHT22;2272;49.226;8.108;2022-09-29T08:20:18;10.20;99.90
4520;DHT22;2272;49.226;8.108;2022-09-29T08:22:44;10.40;99.90
4520;DHT22;2272;49.226;8.108;2022-09-29T08:25:13;10.50;99.90
4520;DHT22;2272;49.226;8.108;2022-09-29T08:27:39;10.50;99.90
4520;DHT22;2272;49.226;8.108;2022-09-29T08:30:09;10.50;99.90
4520;DHT22;2272;49.226;8.108;2022-09-29T08:32:36;10.60;99.90
4520;DHT22;2272;49.226;8.108;2022-09-29T08:35:04;10.80;99.90
4520;DHT22;2272;49.226;8.108;2022-09-29T08:37:31;10.80;99.90
4520;DHT22;2272;49.226;8.108;2022-09-29T08:39:58;11.00;99.90
4520;DHT22;2272;49.226;8.108;2022-09-29T08:42:28;11.30;99.90
4520;DHT22;2272;49.226;8.108;2022-09-29T08:45:05;11.60;99.90
4520;DHT22;2272;49.226;8.108;2022-09-29T08:47:38;11.80;99.90
4520;DHT22;2272;49.226;8.108;2022-09-29T08:50:11;11.90;99.90
4520;DHT22;2272;49.226;8.108;2022-09-29T08:52:42;12.30;99.90
4520;DHT22;2272;49.226;8.108;2022-09-29T08:55:23;12.50;99.90
4520;DHT22;2272;49.226;8.108;2022-09-29T08:57:56;12.90;99.90
4520;DHT22;2272;49.226;8.108;2022-09-29T09:00:32;13.00;99.90
4520;DHT22;2272;49.226;8.108;2022-09-29T09:03:13;13.30;99.90
4520;DHT22;2272;49.226;8.108;2022-09-29T09:05:51;13.70;99.90
4520;DHT22;2272;49.226;8.108;2022-09-29T09:08:30;14.00;99.90
4520;DHT22;2272;49.226;8.108;2022-09-29T09:11:05;14.40;99.90
4520;DHT22;2272;49.226;8.108;2022-09-29T09:13:53;14.70;99.90
4520;DHT22;2272;49.226;8.108;2022-09-29T09:16:28;14.90;99.90
4520;DHT22;2272;49.226;8.108;2022-09-29T09:22:05;15.90;99.90
4520;DHT22;2272;49.226;8.108;2022-09-29T09:24:40;16.30;99.90
4520;DHT22;2272;49.226;8.108;2022-09-29T09:27:14;16.70;99.90
4520;DHT22;2272;49.226;8.108;2022-09-29T09:29:43;17.00;99.90
4520;DHT22;2272;49.226;8.108;2022-09-29T09:32:12;17.20;99.90
4520;DHT22;2272;49.226;8.108;2022-09-29T09:34:44;16.90;99.90
4520;DHT22;2272;49.226;8.108;2022-09-29T09:37:18;16.60;99.90
4520;DHT22;2272;49.226;8.108;2022-09-29T09:39:50;16.20;99.90
4520;DHT22;2272;49.226;8.108;2022-09-29T09:42:24;16.00;99.90
4520;DHT22;2272;49.226;8.108;2022-09-29T09:44:56;15.90;99.90
4520;DHT22;2272;49.226;8.108;2022-09-29T09:47:25;15.80;99.90
4520;DHT22;2272;49.226;8.108;2022-09-29T09:49:58;15.70;99.90
4520;DHT22;2272;49.226;8.108;2022-09-29T09:52:30;15.40;99.90
4520;DHT22;2272;49.226;8.108;2022-09-29T09:55:00;15.30;99.90
4520;DHT22;2272;49.226;8.108;2022-09-29T09:57:49;15.30;99.90
4520;DHT22;2272;49.226;8.108;2022-09-29T10:00:21;15.20;99.90
4520;DHT22;2272;49.226;8.108;2022-09-29T10:02:50;15.20;99.90
4520;DHT22;2272;49.226;8.108;2022-09-29T10:05:20;15.20;99.90
4520;DHT22;2272;49.226;8.108;2022-09-29T10:07:49;15.30;99.90
4520;DHT22;2272;49.226;8.108;2022-09-29T10:10:18;15.40;99.90
4520;DHT22;2272;49.226;8.108;2022-09-29T10:12:45;15.50;99.90
4520;DHT22;2272;49.226;8.108;2022-09-29T10:15:18;15.50;99.90
4520;DHT22;2272;49.226;8.108;2022-09-29T10:17:49;15.60;99.90
4520;DHT22;2272;49.226;8.108;2022-09-29T10:20:30;15.60;99.90
4520;DHT22;2272;49.226;8.108;2022-09-29T10:23:18;15.80;99.90
4520;DHT22;2272;49.226;8.108;2022-09-29T10:25:51;16.00;99.90
4520;DHT22;2272;49.226;8.108;2022-09-29T10:28:18;16.20;99.90
4520;DHT22;2272;49.226;8.108;2022-09-29T10:30:45;16.50;99.90
4520;DHT22;2272;49.226;8.108;2022-09-29T10:33:14;16.60;99.90
4520;DHT22;2272;49.226;8.108;2022-09-29T10:35:44;16.90;99.90
4520;DHT22;2272;49.226;8.108;2022-09-29T10:38:17;17.20;99.90
4520;DHT22;2272;49.226;8.108;2022-09-29T10:40:54;17.30;99.90
4520;DHT22;2272;49.226;8.108;2022-09-29T10:43:25;17.20;99.90
4520;DHT22;2272;49.226;8.108;2022-09-29T10:45:52;17.30;99.90
4520;DHT22;2272;49.226;8.108;2022-09-29T10:48:23;17.30;99.90
4520;DHT22;2272;49.226;8.108;2022-09-29T10:50:53;17.40;99.90
4520;DHT22;2272;49.226;8.108;2022-09-29T10:53:29;17.50;99.90
4520;DHT22;2272;49.226;8.108;2022-09-29T10:56:08;17.50;99.90
4520;DHT22;2272;49.226;8.108;2022-09-29T10:58:39;17.60;99.90
4520;DHT22;2272;49.226;8.108;2022-09-29T11:01:09;17.70;99.90
4520;DHT22;2272;49.226;8.108;2022-09-29T11:03:38;17.80;99.90
4520;DHT22;2272;49.226;8.108;2022-09-29T11:06:09;17.70;99.90
4520;DHT22;2272;49.226;8.108;2022-09-29T11:08:55;17.50;99.90
4520;DHT22;2272;49.226;8.108;2022-09-29T11:11:24;17.10;99.90
4520;DHT22;2272;49.226;8.108;2022-09-29T11:13:51;17.10;99.90
4520;DHT22;2272;49.226;8.108;2022-09-29T11:16:26;17.40;99.90
4520;DHT22;2272;49.226;8.108;2022-09-29T11:18:56;17.50;99.90
4520;DHT22;2272;49.226;8.108;2022-09-29T11:21:50;17.60;99.90
4520;DHT22;2272;49.226;8.108;2022-09-29T11:24:28;17.60;99.90
4520;DHT22;2272;49.226;8.108;2022-09-29T11:27:04;17.80;99.90
4520;DHT22;2272;49.226;8.108;2022-09-29T11:29:38;17.90;99.90
4520;DHT22;2272;49.226;8.108;2022-09-29T11:32:23;18.00;99.90
4520;DHT22;2272;49.226;8.108;2022-09-29T11:37:41;18.20;99.90
4520;DHT22;2272;49.226;8.108;2022-09-29T11:40:12;18.20;99.90
4520;DHT22;2272;49.226;8.108;2022-09-29T11:42:57;18.40;99.90
4520;DHT22;2272;49.226;8.108;2022-09-29T11:48:27;19.10;99.90
4520;DHT22;2272;49.226;8.108;2022-09-29T11:51:06;19.50;99.90
4520;DHT22;2272;49.226;8.108;2022-09-29T11:53:49;19.60;99.90
4520;DHT22;2272;49.226;8.108;2022-09-29T11:56:31;19.70;99.90
4520;DHT22;2272;49.226;8.108;2022-09-29T11:59:13;19.60;99.90
4520;DHT22;2272;49.226;8.108;2022-09-29T12:01:51;19.50;99.90
4520;DHT22;2272;49.226;8.108;2022-09-29T12:04:31;19.40;99.90
4520;DHT22;2272;49.226;8.108;2022-09-29T12:07:13;19.30;99.90
4520;DHT22;2272;49.226;8.108;2022-09-29T12:10:15;19.40;99.90
4520;DHT22;2272;49.226;8.108;2022-09-29T12:12:46;19.40;99.90
4520;DHT22;2272;49.226;8.108;2022-09-29T12:15:26;19.10;99.90
4520;DHT22;2272;49.226;8.108;2022-09-29T12:18:00;18.90;99.90
4520;DHT22;2272;49.226;8.108;2022-09-29T12:20:31;18.80;99.90
4520;DHT22;2272;49.226;8.108;2022-09-29T12:23:02;18.90;99.90
4520;DHT22;2272;49.226;8.108;2022-09-29T12:25:46;19.00;99.90
4520;DHT22;2272;49.226;8.108;2022-09-29T12:28:17;19.00;99.90
4520;DHT22;2272;49.226;8.108;2022-09-29T12:30:49;19.00;99.90
4520;DHT22;2272;49.226;8.108;2022-09-29T12:33:20;19.00;99.90
4520;DHT22;2272;49.226;8.108;2022-09-29T12:35:51;18.80;99.90
4520;DHT22;2272;49.226;8.108;2022-09-29T12:38:24;18.60;99.90
4520;DHT22;2272;49.226;8.108;2022-09-29T12:41:02;18.50;99.90
4520;DHT22;2272;49.226;8.108;2022-09-29T12:43:33;18.50;99.90
4520;DHT22;2272;49.226;8.108;2022-09-29T12:46:10;18.60;99.90
4520;DHT22;2272;49.226;8.108;2022-09-29T12:48:48;18.60;99.90
4520;DHT22;2272;49.226;8.108;2022-09-29T12:51:21;18.70;99.90
4520;DHT22;2272;49.226;8.108;2022-09-29T12:53:59;18.80;99.90
4520;DHT22;2272;49.226;8.108;2022-09-29T12:56:31;19.00;99.90
4520;DHT22;2272;49.226;8.108;2022-09-29T12:59:04;19.00;99.90
4520;DHT22;2272;49.226;8.108;2022-09-29T13:01:35;18.90;99.90
4520;DHT22;2272;49.226;8.108;2022-09-29T13:04:40;18.80;99.90
4520;DHT22;2272;49.226;8.108;2022-09-29T13:07:49;18.70;99.90
4520;DHT22;2272;49.226;8.108;2022-09-29T13:10:35;18.50;99.90
4520;DHT22;2272;49.226;8.108;2022-09-29T13:16:20;17.70;99.90
4520;DHT22;2272;49.226;8.108;2022-09-29T13:19:11;17.30;99.90
4520;DHT22;2272;49.226;8.108;2022-09-29T13:21:51;17.10;99.90
4520;DHT22;2272;49.226;8.108;2022-09-29T13:24:36;17.00;99.90
4520;DHT22;2272;49.226;8.108;2022-09-29T13:27:25;17.00;99.90
4520;DHT22;2272;49.226;8.108;2022-09-29T13:29:59;17.20;99.90
4520;DHT22;2272;49.226;8.108;2022-09-29T13:32:28;17.40;99.90
4520;DHT22;2272;49.226;8.108;2022-09-29T13:34:59;17.50;99.90
4520;DHT22;2272;49.226;8.108;2022-09-29T13:37:34;17.60;99.90
4520;DHT22;2272;49.226;8.108;2022-09-29T13:40:20;17.80;99.90
4520;DHT22;2272;49.226;8.108;2022-09-29T13:42:49;17.80;99.90
4520;DHT22;2272;49.226;8.108;2022-09-29T13:45:42;17.90;99.90
4520;DHT22;2272;49.226;8.108;2022-09-29T13:54:36;17.50;99.90
4520;DHT22;2272;49.226;8.108;2022-09-29T14:00:17;17.00;99.90
4520;DHT22;2272;49.226;8.108;2022-09-29T14:05:45;16.50;99.90
4520;DHT22;2272;49.226;8.108;2022-09-29T14:08:17;16.40;99.90
4520;DHT22;2272;49.226;8.108;2022-09-29T14:10:47;16.20;99.90
4520;DHT22;2272;49.226;8.108;2022-09-29T14:13:21;15.90;99.90
4520;DHT22;2272;49.226;8.108;2022-09-29T14:15:57;15.70;99.90
4520;DHT22;2272;49.226;8.108;2022-09-29T14:18:32;15.50;99.90
4520;DHT22;2272;49.226;8.108;2022-09-29T14:21:03;15.40;99.90
4520;DHT22;2272;49.226;8.108;2022-09-29T14:23:48;15.20;99.90
4520;DHT22;2272;49.226;8.108;2022-09-29T14:26:42;15.20;99.90
4520;DHT22;2272;49.226;8.108;2022-09-29T14:29:14;15.10;99.90
4520;DHT22;2272;49.226;8.108;2022-09-29T14:31:44;15.00;99.90
4520;DHT22;2272;49.226;8.108;2022-09-29T14:34:14;14.80;99.90
4520;DHT22;2272;49.226;8.108;2022-09-29T14:36:42;14.70;99.90
4520;DHT22;2272;49.226;8.108;2022-09-29T14:39:13;14.50;99.90
4520;DHT22;2272;49.226;8.108;2022-09-29T14:41:41;14.30;99.90
4520;DHT22;2272;49.226;8.108;2022-09-29T14:44:11;14.10;99.90
4520;DHT22;2272;49.226;8.108;2022-09-29T14:47:02;14.00;99.90
4520;DHT22;2272;49.226;8.108;2022-09-29T14:53:18;13.50;99.90
4520;DHT22;2272;49.226;8.108;2022-09-29T14:55:59;13.00;99.90
4520;DHT22;2272;49.226;8.108;2022-09-29T14:58:37;12.50;99.90
4520;DHT22;2272;49.226;8.108;2022-09-29T15:01:12;12.20;99.90
4520;DHT22;2272;49.226;8.108;2022-09-29T15:03:44;12.00;99.90
4520;DHT22;2272;49.226;8.108;2022-09-29T15:06:15;11.90;99.90
4520;DHT22;2272;49.226;8.108;2022-09-29T15:08:52;11.80;99.90
4520;DHT22;2272;49.226;8.108;2022-09-29T15:11:28;11.50;99.90
4520;DHT22;2272;49.226;8.108;2022-09-29T15:13:55;11.40;99.90
4520;DHT22;2272;49.226;8.108;2022-09-29T15:16:32;11.20;99.90
4520;DHT22;2272;49.226;8.108;2022-09-29T15:19:18;11.10;99.90
4520;DHT22;2272;49.226;8.108;2022-09-29T15:21:55;11.00;99.90
4520;DHT22;2272;49.226;8.108;2022-09-29T15:24:48;11.00;99.90
4520;DHT22;2272;49.226;8.108;2022-09-29T15:27:19;10.90;99.90
4520;DHT22;2272;49.226;8.108;2022-09-29T15:29:52;10.80;99.90
4520;DHT22;2272;49.226;8.108;2022-09-29T15:32:22;10.70;99.90
4520;DHT22;2272;49.226;8.108;2022-09-29T15:34:50;10.70;99.90
4520;DHT22;2272;49.226;8.108;2022-09-29T15:37:22;10.60;99.90
4520;DHT22;2272;49.226;8.108;2022-09-29T15:39:51;10.50;99.90
4520;DHT22;2272;49.226;8.108;2022-09-29T15:42:20;10.40;99.90
4520;DHT22;2272;49.226;8.108;2022-09-29T15:44:52;10.30;99.90
4520;DHT22;2272;49.226;8.108;2022-09-29T15:47:27;10.30;99.90
4520;DHT22;2272;49.226;8.108;2022-09-29T15:49:55;10.20;99.90
4520;DHT22;2272;49.226;8.108;2022-09-29T15:52:25;10.20;99.90
4520;DHT22;2272;49.226;8.108;2022-09-29T15:54:55;10.20;99.90
4520;DHT22;2272;49.226;8.108;2022-09-29T15:57:46;10.10;99.90
4520;DHT22;2272;49.226;8.108;2022-09-29T16:04:00;10.10;99.90
4520;DHT22;2272;49.226;8.108;2022-09-29T16:06:32;10.00;99.90
4520;DHT22;2272;49.226;8.108;2022-09-29T16:09:03;9.90;99.90
4520;DHT22;2272;49.226;8.108;2022-09-29T16:11:32;9.80;99.90
4520;DHT22;2272;49.226;8.108;2022-09-29T16:14:01;9.80;99.90
4520;DHT22;2272;49.226;8.108;2022-09-29T16:16:34;9.70;99.90
4520;DHT22;2272;49.226;8.108;2022-09-29T16:19:06;9.60;99.90
4520;DHT22;2272;49.226;8.108;2022-09-29T16:21:35;9.50;99.90
4520;DHT22;2272;49.226;8.108;2022-09-29T16:24:10;9.50;99.90
4520;DHT22;2272;49.226;8.108;2022-09-29T16:26:39;9.50;99.90
4520;DHT22;2272;49.226;8.108;2022-09-29T16:29:23;9.40;99.90
4520;DHT22;2272;49.226;8.108;2022-09-29T16:31:51;9.40;99.90
4520;DHT22;2272;49.226;8.108;2022-09-29T16:34:25;9.50;99.90
4520;DHT22;2272;49.226;8.108;2022-09-29T16:36:54;9.50;99.90
4520;DHT22;2272;49.226;8.108;2022-09-29T16:39:24;9.60;99.90
4520;DHT22;2272;49.226;8.108;2022-09-29T16:41:53;9.60;99.90
4520;DHT22;2272;49.226;8.108;2022-09-29T16:44:25;9.60;99.90
4520;DHT22;2272;49.226;8.108;2022-09-29T16:46:56;9.70;99.90
4520;DHT22;2272;49.226;8.108;2022-09-29T16:49:43;9.60;99.90
4520;DHT22;2272;49.226;8.108;2022-09-29T16:52:14;9.70;99.90
4520;DHT22;2272;49.226;8.108;2022-09-29T16:54:45;9.70;99.90
4520;DHT22;2272;49.226;8.108;2022-09-29T16:57:22;9.70;99.90
4520;DHT22;2272;49.226;8.108;2022-09-29T16:59:51;9.70;99.90
4520;DHT22;2272;49.226;8.108;2022-09-29T17:02:19;9.70;99.90
4520;DHT22;2272;49.226;8.108;2022-09-29T17:04:47;9.70;99.90
4520;DHT22;2272;49.226;8.108;2022-09-29T17:07:14;9.70;99.90
4520;DHT22;2272;49.226;8.108;2022-09-29T17:09:49;9.60;99.90
4520;DHT22;2272;49.226;8.108;2022-09-29T17:12:17;9.50;99.90
4520;DHT22;2272;49.226;8.108;2022-09-29T17:14:43;9.50;99.90